Terminal Aerodrome Forecast
Issued by NWS Springfield, MO

Home | Current Version | Previous Version | Text Only | Print | Product List | Glossary On
Versions: 1 2 3 4 5 6 7 8 9 10 11 12 13 14
000
FTUS43 KSGF 242320
TAFSGF
TAF
KSGF 242320Z 2500/2524 32008KT P6SM VCSH BKN060
     FM250100 31005KT P6SM SKC
     FM250500 VRB03KT P6SM SKC
      TEMPO 2510/2513 3SM BR
     FM251400 18009KT P6SM SKC=

USA.gov is the U.S. government's official web portal to all federal, state and local government web resources and services.